Time;durP1;ratioP1;P1;durP2;ratioP2;P2;SDS_P1;SDS_P2;PMS_P1;PMS_P2;Temp;Humidity;BMP_temperature;BMP_pressure;BME280_temperature;BME280_humidity;BME280_pressure;Samples;Min_cycle;Max_cycle;Signal;HPM_P1;HPM_P2
2021/10/27 00:02:00;;;;;;;6.07;4.60;;;;;;;9.09;73.66;99799.94;2618129;54;20014;-68
2021/10/27 00:04:30;;;;;;;8.60;4.97;;;;;;;9.08;73.50;99803.56;2618359;54;20025;-68
2021/10/27 00:06:59;;;;;;;8.38;5.20;;;;;;;9.09;73.55;99807.03;2617815;54;20038;-68
2021/10/27 00:09:32;;;;;;;7.53;5.45;;;;;;;9.07;73.75;99811.66;2618306;54;20546;-68
2021/10/27 00:12:01;;;;;;;7.30;5.40;;;;;;;9.09;73.57;99807.84;2617399;51;20039;-67
2021/10/27 00:14:31;;;;;;;9.38;5.55;;;;;;;9.09;73.79;99807.03;2617488;46;20057;-67
2021/10/27 00:17:01;;;;;;;10.13;6.07;;;;;;;9.12;73.83;99802.28;2618531;39;20345;-67
2021/10/27 00:19:31;;;;;;;10.80;5.22;;;;;;;9.15;74.25;99806.41;2618119;54;20522;-67
2021/10/27 00:22:00;;;;;;;9.63;5.68;;;;;;;9.21;73.73;99797.03;2618483;54;20034;-67
2021/10/27 00:24:32;;;;;;;13.35;5.20;;;;;;;9.29;74.11;99789.97;2618555;54;20035;-68
2021/10/27 00:27:02;;;;;;;8.90;5.78;;;;;;;9.33;73.83;99798.38;2618024;54;20033;-67
2021/10/27 00:29:34;;;;;;;9.25;6.03;;;;;;;9.25;73.54;99790.44;2617978;54;20065;-67
2021/10/27 00:32:04;;;;;;;12.55;5.63;;;;;;;9.14;73.86;99788.91;2617936;54;20023;-67
2021/10/27 00:34:33;;;;;;;9.90;5.70;;;;;;;9.07;74.16;99799.28;2617797;54;20040;-67
2021/10/27 00:37:03;;;;;;;9.95;5.50;;;;;;;9.02;74.33;99796.31;2618273;54;20018;-67
2021/10/27 00:39:36;;;;;;;8.30;5.55;;;;;;;9.03;74.70;99802.41;2618051;54;20572;-68
2021/10/27 00:42:07;;;;;;;7.00;5.60;;;;;;;9.06;74.54;99796.78;2617479;54;20042;-68
2021/10/27 00:44:36;;;;;;;10.95;5.28;;;;;;;9.14;74.61;99807.38;2618153;54;20037;-68
2021/10/27 00:47:09;;;;;;;8.13;4.57;;;;;;;9.18;74.33;99796.38;2617943;54;20026;-68
2021/10/27 00:49:42;;;;;;;8.23;4.50;;;;;;;9.28;74.56;99806.78;2618330;54;20038;-67
2021/10/27 00:52:14;;;;;;;12.38;4.80;;;;;;;9.33;75.19;99812.41;2617962;54;20030;-68
2021/10/27 00:54:50;;;;;;;10.10;4.70;;;;;;;9.39;75.27;99806.50;2618676;39;20437;-67
2021/10/27 00:57:23;;;;;;;6.68;4.65;;;;;;;9.42;75.09;99803.50;2618013;54;20033;-68
2021/10/27 00:59:53;;;;;;;7.30;4.05;;;;;;;9.42;75.26;99810.59;2617771;39;20440;-67
2021/10/27 01:02:22;;;;;;;10.43;5.47;;;;;;;9.45;75.61;99812.94;2617365;54;20030;-67
2021/10/27 01:04:52;;;;;;;4.88;4.05;;;;;;;9.51;75.37;99814.09;2617362;48;20038;-68
2021/10/27 01:07:22;;;;;;;5.60;4.20;;;;;;;9.55;75.50;99816.28;2618172;54;20034;-68
2021/10/27 01:09:54;;;;;;;7.93;4.13;;;;;;;9.59;75.42;99820.25;2618497;54;20033;-68
2021/10/27 01:12:24;;;;;;;6.97;3.58;;;;;;;9.64;75.73;99823.22;2618077;54;20033;-67
2021/10/27 01:14:54;;;;;;;5.97;4.57;;;;;;;9.69;75.64;99820.09;2618217;54;20053;-68
2021/10/27 01:17:23;;;;;;;8.43;3.50;;;;;;;9.75;75.65;99834.44;2618088;54;20026;-69
2021/10/27 01:19:58;;;;;;;7.07;3.90;;;;;;;9.80;75.20;99840.91;2617882;54;20045;-70
2021/10/27 01:22:28;;;;;;;;;;;;;;;9.79;75.29;99833.97;2618148;54;20546;-67
2021/10/27 01:25:00;;;;;;;6.63;4.30;;;;;;;9.85;75.11;99827.22;2617310;47;19963;-68
2021/10/27 01:27:31;;;;;;;6.78;4.05;;;;;;;9.91;75.22;99826.56;2617294;47;20038;-69
2021/10/27 01:30:01;;;;;;;6.82;3.97;;;;;;;9.93;74.82;99816.66;2617845;54;20034;-68
2021/10/27 01:32:37;;;;;;;7.43;4.10;;;;;;;9.93;74.99;99817.50;2617454;54;20119;-68
2021/10/27 01:35:10;;;;;;;7.72;4.63;;;;;;;9.97;75.22;99819.81;2617723;54;20031;-68
2021/10/27 01:37:41;;;;;;;8.25;4.45;;;;;;;9.99;75.24;99818.63;2618055;54;20022;-69
2021/10/27 01:40:14;;;;;;;9.23;4.50;;;;;;;10.02;75.27;99814.84;2617556;54;20065;-68
2021/10/27 01:42:44;;;;;;;8.15;4.40;;;;;;;10.03;75.05;99817.31;2617236;47;20038;-68
2021/10/27 01:45:16;;;;;;;10.18;5.18;;;;;;;10.02;74.52;99815.69;2618049;54;20090;-68
2021/10/27 01:47:46;;;;;;;6.93;3.95;;;;;;;10.06;74.97;99810.91;2617028;47;20062;-69
2021/10/27 01:50:19;;;;;;;6.35;4.18;;;;;;;10.10;74.95;99806.94;2618344;54;20561;-69
2021/10/27 01:52:48;;;;;;;7.15;4.10;;;;;;;10.12;75.27;99808.44;2618095;47;20046;-68
2021/10/27 01:55:18;;;;;;;8.50;4.70;;;;;;;10.16;74.77;99806.25;2618234;54;20045;-68
2021/10/27 01:57:49;;;;;;;6.15;4.03;;;;;;;10.21;74.71;99808.44;2618150;54;20027;-67
2021/10/27 02:00:20;;;;;;;6.90;4.60;;;;;;;10.21;75.11;99803.97;2620085;39;20417;-68
2021/10/27 02:02:49;;;;;;;6.38;3.72;;;;;;;10.24;75.18;99803.63;2623472;54;20022;-68
2021/10/27 02:05:22;;;;;;;9.52;4.32;;;;;;;10.27;74.63;99791.94;2621458;39;20530;-68
2021/10/27 02:07:51;;;;;;;6.45;4.57;;;;;;;10.29;74.74;99795.25;2617927;39;20438;-68
2021/10/27 02:10:21;;;;;;;7.40;3.92;;;;;;;10.29;75.04;99788.13;2617614;54;20030;-68
2021/10/27 02:12:51;;;;;;;5.65;3.67;;;;;;;10.32;74.99;99790.44;2617654;54;20045;-68
2021/10/27 02:15:20;;;;;;;10.57;5.00;;;;;;;10.35;75.21;99794.56;2618186;39;20444;-68
2021/10/27 02:17:50;;;;;;;9.60;4.53;;;;;;;10.33;75.08;99786.81;2618046;54;20030;-68
2021/10/27 02:20:24;;;;;;;7.65;4.70;;;;;;;10.30;75.15;99789.78;2617777;54;20065;-68
2021/10/27 02:22:53;;;;;;;6.25;4.80;;;;;;;10.30;75.20;99796.88;2619435;54;20035;-68
2021/10/27 02:25:23;;;;;;;7.20;4.32;;;;;;;10.30;74.90;99799.53;2618468;54;20034;-68
2021/10/27 02:27:52;;;;;;;8.15;4.95;;;;;;;10.30;74.93;99800.34;2620249;54;20046;-68
2021/10/27 02:30:24;;;;;;;6.40;4.28;;;;;;;10.31;74.96;99796.72;2620792;54;20038;-69
2021/10/27 02:32:54;;;;;;;7.40;4.63;;;;;;;10.33;75.13;99794.75;2620299;54;20026;-69
2021/10/27 02:35:26;;;;;;;6.10;4.40;;;;;;;10.32;74.78;99795.72;2620578;54;20030;-69
2021/10/27 02:37:55;;;;;;;8.10;4.55;;;;;;;10.33;74.96;99792.09;2621693;54;20069;-69
2021/10/27 02:40:26;;;;;;;6.97;3.72;;;;;;;10.34;74.99;99796.38;2621884;54;20030;-70
2021/10/27 02:42:56;;;;;;;8.07;4.22;;;;;;;10.33;74.95;99802.66;2623003;54;20041;-69
2021/10/27 02:45:25;;;;;;;7.13;4.35;;;;;;;10.27;74.51;99794.56;2622062;54;20045;-68
2021/10/27 02:47:55;;;;;;;6.38;3.92;;;;;;;10.31;74.36;99793.25;2623078;54;20058;-69
2021/10/27 02:50:27;;;;;;;6.00;4.00;;;;;;;10.33;74.73;99801.84;2623859;54;20090;-68
2021/10/27 02:52:57;;;;;;;6.28;4.45;;;;;;;10.34;74.56;99798.22;2625179;54;20030;-68
2021/10/27 02:55:29;;;;;;;6.18;4.10;;;;;;;10.36;74.25;99807.59;2625250;54;20033;-68
2021/10/27 02:58:00;;;;;;;9.40;4.65;;;;;;;10.39;74.12;99802.00;2624667;54;20027;-68
2021/10/27 03:00:30;;;;;;;5.25;3.88;;;;;;;10.32;74.36;99803.63;2623862;54;20037;-69
2021/10/27 03:03:00;;;;;;;7.72;4.32;;;;;;;10.20;74.22;99798.81;2625084;31;20543;-69
2021/10/27 03:05:33;;;;;;;9.00;4.65;;;;;;;10.07;74.23;99794.03;2625774;39;20446;-68
2021/10/27 03:08:02;;;;;;;7.47;4.22;;;;;;;10.01;74.89;99798.19;2625007;54;20038;-68
2021/10/27 03:10:32;;;;;;;8.05;4.43;;;;;;;10.01;74.53;99792.06;2625033;54;20081;-68
2021/10/27 03:13:01;;;;;;;5.85;4.28;;;;;;;10.02;74.80;99788.44;2623926;54;20015;-68
2021/10/27 03:15:31;;;;;;;6.38;3.95;;;;;;;10.00;74.74;99791.25;2624975;54;20030;-68
2021/10/27 03:18:01;;;;;;;11.30;4.75;;;;;;;10.02;75.22;99789.25;2625150;54;20034;-68
2021/10/27 03:20:33;;;;;;;7.03;4.32;;;;;;;10.05;75.12;99786.28;2624353;54;20038;-68
2021/10/27 03:23:03;;;;;;;7.20;4.75;;;;;;;10.06;75.19;99787.94;2620572;54;20045;-68
2021/10/27 03:25:33;;;;;;;8.93;5.15;;;;;;;10.00;74.83;99785.97;2618358;54;20042;-68
2021/10/27 03:28:03;;;;;;;11.75;5.65;;;;;;;9.98;74.94;99782.66;2618717;54;20033;-68
2021/10/27 03:30:32;;;;;;;5.20;4.47;;;;;;;10.00;74.98;99791.25;2617941;54;20035;-69
2021/10/27 03:33:02;;;;;;;8.38;4.82;;;;;;;10.00;75.28;99779.84;2618276;54;20018;-68
2021/10/27 03:35:34;;;;;;;7.05;5.10;;;;;;;10.05;75.27;99783.66;2618410;54;20022;-68
2021/10/27 03:38:04;;;;;;;8.52;5.10;;;;;;;10.07;74.89;99792.22;2618214;54;20018;-68
2021/10/27 03:40:34;;;;;;;7.30;5.10;;;;;;;9.98;74.84;99793.22;2617977;54;20038;-68
2021/10/27 03:43:04;;;;;;;8.18;4.60;;;;;;;9.94;75.23;99791.91;2618454;54;20065;-68
2021/10/27 03:45:33;;;;;;;5.35;4.78;;;;;;;9.97;75.11;99796.03;2618229;54;20045;-68
2021/10/27 03:48:03;;;;;;;8.55;4.78;;;;;;;9.99;75.34;99802.78;2617908;54;20045;-68
2021/10/27 03:50:36;;;;;;;7.57;4.80;;;;;;;10.01;75.31;99790.25;2618023;54;20041;-68
2021/10/27 03:53:06;;;;;;;8.65;5.00;;;;;;;10.03;75.15;99790.09;2618413;54;20042;-68
2021/10/27 03:55:36;;;;;;;7.00;5.30;;;;;;;10.02;74.89;99794.53;2618140;54;20045;-68
2021/10/27 03:58:05;;;;;;;10.48;5.30;;;;;;;9.97;74.71;99790.75;2618203;54;20026;-68
2021/10/27 04:00:36;;;;;;;7.35;4.85;;;;;;;9.86;75.29;99792.72;2618013;54;20567;-67
2021/10/27 04:03:06;;;;;;;6.85;5.00;;;;;;;9.85;75.75;99791.06;2618598;54;20031;-67
2021/10/27 04:05:38;;;;;;;8.23;4.75;;;;;;;9.90;75.74;99786.13;2617469;47;20030;-67
2021/10/27 04:08:09;;;;;;;6.43;4.80;;;;;;;9.92;75.68;99789.44;2618302;54;20038;-68
2021/10/27 04:10:39;;;;;;;9.00;5.03;;;;;;;9.89;75.07;99789.75;2617979;54;20114;-68
2021/10/27 04:13:08;;;;;;;8.32;4.43;;;;;;;9.81;75.31;99784.47;2618074;54;20030;-68
2021/10/27 04:15:38;;;;;;;7.60;5.40;;;;;;;9.81;75.14;99791.56;2618073;54;20038;-67
2021/10/27 04:18:08;;;;;;;6.20;4.60;;;;;;;9.83;75.27;99793.03;2617443;47;20039;-68
2021/10/27 04:20:41;;;;;;;8.75;5.03;;;;;;;9.84;75.29;99794.72;2617530;54;20034;-67
2021/10/27 04:23:11;;;;;;;8.50;5.80;;;;;;;9.82;75.72;99794.03;2617484;47;20034;-68
2021/10/27 04:25:41;;;;;;;9.82;5.82;;;;;;;9.81;75.32;99800.31;2617603;47;20103;-67
2021/10/27 04:28:11;;;;;;;9.38;5.07;;;;;;;9.78;75.48;99799.81;2618142;54;20046;-68
2021/10/27 04:30:40;;;;;;;11.35;6.25;;;;;;;9.73;75.50;99804.75;2617974;54;20026;-68
2021/10/27 04:33:17;;;;;;;9.25;5.72;;;;;;;9.73;75.75;99805.56;2617806;54;20045;-68
2021/10/27 04:35:50;;;;;;;8.27;5.97;;;;;;;9.73;75.54;99813.50;2617793;54;20038;-68
2021/10/27 04:38:20;;;;;;;9.23;5.85;;;;;;;9.67;75.68;99815.00;2618045;54;20026;-68
2021/10/27 04:40:51;;;;;;;10.70;6.05;;;;;;;9.59;75.63;99799.13;2618293;54;20038;-67
2021/10/27 04:43:20;;;;;;;13.65;6.40;;;;;;;9.43;76.16;99807.81;2617713;39;20354;-67
2021/10/27 04:45:50;;;;;;;10.93;6.65;;;;;;;9.37;76.22;99805.00;2618161;54;20027;-68
2021/10/27 04:48:20;;;;;;;11.57;6.82;;;;;;;9.31;76.56;99806.47;2617779;46;20026;-68
2021/10/27 04:50:52;;;;;;;14.10;7.00;;;;;;;9.30;76.46;99806.59;2618538;54;20037;-68
2021/10/27 04:53:24;;;;;;;9.20;6.65;;;;;;;9.27;76.46;99815.69;2618077;47;20034;-68
2021/10/27 04:55:54;;;;;;;12.32;6.75;;;;;;;9.24;76.88;99804.63;2618470;54;20031;-68
2021/10/27 04:58:27;;;;;;;9.50;6.13;;;;;;;9.23;77.17;99814.34;2618205;54;20030;-68
2021/10/27 05:00:56;;;;;;;10.45;6.40;;;;;;;9.22;77.18;99819.78;2618248;54;20030;-68
2021/10/27 05:03:26;;;;;;;11.18;6.55;;;;;;;9.23;77.00;99822.28;2617944;54;20038;-68
2021/10/27 05:06:01;;;;;;;10.57;6.32;;;;;;;9.28;76.88;99821.78;2618474;54;20029;-68
2021/10/27 05:08:32;;;;;;;7.72;5.78;;;;;;;9.28;77.35;99822.63;2618484;54;20109;-68
2021/10/27 05:11:02;;;;;;;9.70;6.18;;;;;;;9.24;77.07;99813.38;2617693;54;20038;-69
2021/10/27 05:13:31;;;;;;;10.95;6.40;;;;;;;9.22;77.29;99820.59;2617591;54;20038;-68
2021/10/27 05:16:01;;;;;;;11.63;6.53;;;;;;;9.27;77.13;99826.25;2618404;39;20316;-68
2021/10/27 05:18:31;;;;;;;8.38;6.05;;;;;;;9.27;77.06;99825.41;2618239;54;20027;-68
2021/10/27 05:21:03;;;;;;;8.60;5.80;;;;;;;9.24;77.69;99820.47;2617668;47;20172;-68
2021/10/27 05:23:35;;;;;;;10.57;7.03;;;;;;;9.27;77.41;99823.59;2617488;47;20027;-68
2021/10/27 05:26:05;;;;;;;9.52;5.90;;;;;;;9.28;77.61;99824.44;2618145;54;20125;-68
2021/10/27 05:28:35;;;;;;;11.18;6.20;;;;;;;9.33;77.33;99824.78;2618249;39;20462;-68
2021/10/27 05:31:04;;;;;;;11.18;6.55;;;;;;;9.38;77.69;99817.19;2617109;54;20031;-68
2021/10/27 05:33:34;;;;;;;9.30;6.88;;;;;;;9.37;77.57;99810.28;2617851;54;20038;-68
2021/10/27 05:36:06;;;;;;;10.13;6.50;;;;;;;9.39;77.36;99814.41;2617176;54;20050;-68
2021/10/27 05:38:37;;;;;;;10.02;6.22;;;;;;;9.46;77.28;99813.75;2618158;54;20030;-68
2021/10/27 05:41:08;;;;;;;12.43;7.28;;;;;;;9.48;77.62;99806.53;2617292;54;20033;-68
2021/10/27 05:43:37;;;;;;;12.40;7.07;;;;;;;9.50;77.32;99812.44;2617856;54;20029;-68
2021/10/27 05:46:07;;;;;;;12.05;6.95;;;;;;;9.54;77.50;99805.84;2617699;54;20030;-68
2021/10/27 05:48:40;;;;;;;10.45;7.63;;;;;;;9.57;77.23;99809.00;2617806;54;20061;-68
2021/10/27 05:51:20;;;;;;;14.25;7.38;;;;;;;9.57;77.24;99811.66;2617641;54;20046;-68
2021/10/27 05:56:33;;;;;;;18.50;9.15;;;;;;;9.48;76.95;99819.72;2617873;54;20062;-68
2021/10/27 05:59:02;;;;;;;14.27;8.57;;;;;;;9.48;77.09;99815.25;2617187;54;20038;-68
2021/10/27 06:01:32;;;;;;;16.55;9.27;;;;;;;9.49;76.93;99818.72;2617510;54;20019;-68
2021/10/27 06:04:02;;;;;;;12.52;8.35;;;;;;;9.53;77.17;99815.59;2618130;39;20450;-68
2021/10/27 06:06:34;;;;;;;10.90;7.43;;;;;;;9.63;77.21;99810.16;2618139;39;20434;-68
2021/10/27 06:09:05;;;;;;;13.82;7.88;;;;;;;9.67;77.17;99814.13;2617642;54;20053;-69
2021/10/27 06:11:36;;;;;;;15.02;7.50;;;;;;;9.71;77.18;99817.28;2617594;54;20038;-67
2021/10/27 06:14:07;;;;;;;18.27;9.30;;;;;;;9.77;76.67;99819.28;2618861;54;20038;-67
2021/10/27 06:16:37;;;;;;;11.07;7.53;;;;;;;9.69;76.42;99814.81;2618503;54;20074;-67
2021/10/27 06:19:07;;;;;;;12.85;8.13;;;;;;;9.56;76.47;99814.47;2618369;54;20034;-67
2021/10/27 06:21:40;;;;;;;16.88;9.60;;;;;;;9.54;76.81;99819.06;2617971;54;20045;-68
2021/10/27 06:24:10;;;;;;;16.17;8.40;;;;;;;9.52;76.58;99819.22;2618589;54;20047;-67
2021/10/27 06:26:40;;;;;;;15.90;8.15;;;;;;;9.48;77.11;99817.06;2618419;54;20039;-67
2021/10/27 06:29:14;;;;;;;15.57;7.85;;;;;;;9.47;77.15;99821.53;2618929;54;20046;-71
2021/10/27 06:31:46;;;;;;;14.95;8.40;;;;;;;9.46;76.65;99827.78;2625368;54;20031;-69
2021/10/27 06:34:32;;;;;;;16.13;9.60;;;;;;;9.40;76.96;99831.91;2626210;54;20022;-68
2021/10/27 06:37:24;;;;;;;13.02;8.13;;;;;;;9.33;76.82;99830.88;2625884;54;20030;-71
2021/10/27 06:48:02;;;;;;;18.75;10.10;;;;;;;9.34;77.70;99855.44;2623181;46;20046;-70
2021/10/27 06:50:32;;;;;;;16.33;9.82;;;;;;;9.38;77.53;99854.13;2624089;54;20046;-69
2021/10/27 06:53:05;;;;;;;17.73;10.23;;;;;;;9.46;77.42;99856.00;2624672;54;20038;-71
2021/10/27 06:55:39;;;;;;;15.18;8.65;;;;;;;9.51;77.66;99856.31;2625029;54;20026;-71
2021/10/27 06:58:10;;;;;;;16.02;10.57;;;;;;;9.60;77.22;99855.38;2623521;47;20065;-70
2021/10/27 07:00:45;;;;;;;14.23;8.95;;;;;;;9.68;77.06;99863.34;2624069;39;20450;-71
2021/10/27 07:03:40;;;;;;;13.85;8.40;;;;;;;9.70;77.49;99871.09;2623322;54;20125;-70
2021/10/27 07:17:04;;;;;;;13.45;8.55;;;;;;;9.93;76.54;99880.88;2621175;54;20022;-70
2021/10/27 07:19:33;;;;;;;13.50;8.57;;;;;;;10.01;76.64;99888.00;2624510;54;20034;-70
2021/10/27 07:22:04;;;;;;;13.63;8.88;;;;;;;10.10;76.30;99887.03;2624743;46;20041;-70
2021/10/27 07:24:36;;;;;;;11.68;7.75;;;;;;;10.06;76.03;99893.63;2624767;54;20038;-70
2021/10/27 07:27:07;;;;;;;12.50;7.00;;;;;;;10.07;76.31;99899.72;2624411;54;20026;-70
2021/10/27 07:29:42;;;;;;;12.37;7.10;;;;;;;10.14;76.33;99890.16;2625340;54;20031;-71
2021/10/27 07:32:14;;;;;;;13.25;7.30;;;;;;;10.15;76.06;99895.28;2625757;54;20022;-71
2021/10/27 07:34:47;;;;;;;12.75;6.40;;;;;;;10.18;75.98;99894.13;2625461;54;20041;-70
2021/10/27 07:40:33;;;;;;;10.68;7.18;;;;;;;10.29;75.70;99899.13;2625645;54;20027;-70
2021/10/27 07:43:03;;;;;;;14.25;7.90;;;;;;;10.29;75.66;99891.22;2625190;54;20045;-70
2021/10/27 07:45:33;;;;;;;;;;;;;;;10.35;75.30;99892.34;2626187;54;20038;-71
2021/10/27 07:48:03;;;;;;;15.55;11.57;;;;;;;10.37;75.60;99888.56;2625131;47;19949;-71
2021/10/27 07:50:34;;;;;;;14.75;7.90;;;;;;;10.41;75.17;99894.34;2625138;54;20029;-70
2021/10/27 07:53:05;;;;;;;11.07;8.02;;;;;;;10.46;75.43;99904.44;2624487;54;20049;-70
2021/10/27 07:55:39;;;;;;;12.10;8.13;;;;;;;10.52;74.99;99896.66;2624890;54;20026;-70
2021/10/27 07:58:10;;;;;;;17.25;8.70;;;;;;;10.57;75.16;99896.16;2625450;54;20034;-69
2021/10/27 08:00:40;;;;;;;10.60;7.80;;;;;;;10.56;74.09;99899.78;2625716;39;20435;-69
2021/10/27 08:03:10;;;;;;;11.38;8.63;;;;;;;10.50;74.74;99895.19;2620671;54;20023;-69
2021/10/27 08:05:41;;;;;;;15.57;9.20;;;;;;;10.54;74.60;99899.16;2621160;54;20026;-68
2021/10/27 08:08:14;;;;;;;11.93;7.88;;;;;;;10.63;74.80;99903.44;2620645;54;20037;-69
2021/10/27 08:10:46;;;;;;;14.63;8.27;;;;;;;10.70;74.64;99907.06;2621255;47;20565;-68
2021/10/27 08:13:16;;;;;;;14.43;8.07;;;;;;;10.71;74.88;99913.19;2621438;47;20553;-70
2021/10/27 08:15:46;;;;;;;15.23;8.82;;;;;;;10.73;74.38;99906.72;2624275;54;20018;-70
2021/10/27 08:18:17;;;;;;;12.80;7.82;;;;;;;10.79;74.91;99907.88;2624137;51;20553;-71
2021/10/27 08:20:48;;;;;;;15.23;7.93;;;;;;;10.89;74.85;99905.88;2625289;54;20038;-70
2021/10/27 08:23:22;;;;;;;11.40;6.97;;;;;;;10.96;74.99;99906.03;2625077;54;20030;-71
2021/10/27 08:25:56;;;;;;;14.88;8.25;;;;;;;11.13;74.69;99907.66;2625879;39;20422;-71
2021/10/27 08:28:33;;;;;;;13.55;7.65;;;;;;;11.23;74.81;99908.31;2625513;54;20544;-71
2021/10/27 08:31:08;;;;;;;11.40;7.95;;;;;;;11.43;74.88;99906.09;2625467;54;20026;-70
2021/10/27 08:36:27;;;;;;;18.45;9.48;;;;;;;11.58;74.62;99908.84;2623454;54;20023;-70
2021/10/27 08:38:57;;;;;;;17.45;9.82;;;;;;;11.63;74.65;99903.84;2623076;54;20027;-71
2021/10/27 08:41:47;;;;;;;15.48;9.27;;;;;;;11.65;74.81;99893.91;2623752;54;20082;-72
2021/10/27 08:44:16;;;;;;;15.38;9.57;;;;;;;11.69;74.83;99907.63;2623736;54;20027;-71
2021/10/27 08:46:46;;;;;;;12.23;8.52;;;;;;;11.68;74.60;99903.34;2623320;54;20104;-71
2021/10/27 08:49:20;;;;;;;15.18;9.18;;;;;;;11.75;74.74;99904.28;2623065;54;20014;-70
2021/10/27 08:51:52;;;;;;;10.73;7.95;;;;;;;11.83;74.85;99907.75;2623286;54;20038;-70
2021/10/27 08:54:22;;;;;;;19.10;9.00;;;;;;;11.88;74.26;99889.53;2624585;39;20425;-71
2021/10/27 08:56:57;;;;;;;12.55;8.52;;;;;;;11.95;74.58;99897.59;2622638;47;20573;-70
2021/10/27 08:59:33;;;;;;;13.55;8.52;;;;;;;12.01;74.01;99902.19;2622940;54;20038;-71
2021/10/27 09:02:25;;;;;;;14.45;8.45;;;;;;;12.03;73.58;99894.06;2621441;54;20030;-71
2021/10/27 09:05:07;;;;;;;12.73;8.25;;;;;;;12.01;73.54;99893.44;2619911;47;20030;-71
2021/10/27 09:07:54;;;;;;;12.88;7.45;;;;;;;12.02;73.84;99893.25;2619780;47;20025;-71
2021/10/27 09:14:24;;;;;;;12.38;8.07;;;;;;;12.06;73.59;99894.53;2619474;47;20062;-70
2021/10/27 09:36:08;;;;;;;12.27;7.20;;;;;;;12.62;72.33;99873.91;2622835;47;20087;-70
2021/10/27 09:39:10;;;;;;;11.57;7.35;;;;;;;12.76;71.97;99872.28;2623766;54;20062;-72
2021/10/27 09:47:34;;;;;;;12.23;6.85;;;;;;;12.81;71.52;99872.53;2625971;39;20324;-71
2021/10/27 10:06:48;;;;;;;13.93;7.30;;;;;;;13.43;70.21;99860.81;2623784;47;20035;-71
2021/10/27 10:09:19;;;;;;;12.75;7.20;;;;;;;13.44;69.48;99870.41;2623882;47;20034;-71
2021/10/27 10:11:51;;;;;;;11.10;6.85;;;;;;;13.39;70.15;99867.50;2624143;47;20031;-70
2021/10/27 10:14:21;;;;;;;13.57;7.28;;;;;;;13.38;69.70;99871.94;2624331;54;20054;-70
2021/10/27 10:16:53;;;;;;;11.80;6.85;;;;;;;13.42;69.73;99868.94;2624416;47;20023;-71
2021/10/27 10:19:36;;;;;;;11.02;6.47;;;;;;;13.41;69.95;99864.66;2624639;54;20082;-71
2021/10/27 10:22:09;;;;;;;11.55;7.07;;;;;;;13.37;70.20;99869.50;2624148;54;20038;-71
2021/10/27 10:24:40;;;;;;;11.25;6.60;;;;;;;13.37;69.86;99867.66;2624403;51;20034;-71
2021/10/27 10:27:16;;;;;;;11.30;6.90;;;;;;;13.53;70.11;99861.31;2624921;54;20037;-70
2021/10/27 10:29:54;;;;;;;9.55;6.55;;;;;;;13.51;69.19;99855.38;2624970;54;20090;-70
2021/10/27 10:32:37;;;;;;;14.73;7.07;;;;;;;13.62;69.28;99860.19;2624292;54;20618;-71
2021/10/27 10:35:22;;;;;;;12.88;7.15;;;;;;;13.74;68.98;99852.56;2624717;54;20566;-70
2021/10/27 10:38:04;;;;;;;11.57;6.78;;;;;;;13.72;68.70;99859.91;2625420;54;20026;-70
2021/10/27 10:40:51;;;;;;;13.05;6.43;;;;;;;13.67;68.72;99856.16;2624080;54;20125;-71
2021/10/27 10:44:01;;;;;;;8.50;6.40;;;;;;;13.82;68.63;99852.47;2623868;54;20061;-71
2021/10/27 10:58:10;;;;;;;11.35;6.95;;;;;;;14.54;67.02;99856.88;2625002;54;20069;-71
2021/10/27 11:00:58;;;;;;;11.32;6.25;;;;;;;14.46;66.68;99851.66;2625364;54;20025;-71
2021/10/27 11:03:48;;;;;;;14.85;6.55;;;;;;;14.40;66.99;99848.91;2625996;54;20050;-71
2021/10/27 11:23:44;;;;;;;13.75;7.15;;;;;;;14.10;66.83;99836.59;2625435;54;20065;-72
2021/10/27 11:26:47;;;;;;;8.70;5.93;;;;;;;14.23;67.13;99837.72;2626536;54;20041;-71
2021/10/27 11:37:45;;;;;;;11.70;5.45;;;;;;;14.56;66.49;99820.22;2623598;54;20033;-70
2021/10/27 11:40:35;;;;;;;13.52;6.63;;;;;;;14.63;65.87;99819.47;2621837;47;20033;-72
2021/10/27 11:43:17;;;;;;;7.13;5.53;;;;;;;14.66;65.62;99816.44;2622492;54;20057;-71
2021/10/27 11:46:03;;;;;;;7.88;5.45;;;;;;;14.73;65.60;99812.75;2625197;54;20030;-72
2021/10/27 11:48:50;;;;;;;8.90;5.63;;;;;;;14.86;65.14;99812.88;2626065;39;20438;-71
2021/10/27 11:51:20;;;;;;;7.05;5.30;;;;;;;14.74;65.37;99803.78;2623763;54;20030;-71
2021/10/27 11:53:50;;;;;;;5.45;4.75;;;;;;;14.74;65.22;99801.13;2625263;54;20019;-71
2021/10/27 11:56:24;;;;;;;;;;;;;;;14.70;65.25;99802.53;2625650;54;20038;-72
2021/10/27 11:58:56;;;;;;;7.72;5.25;;;;;;;14.82;65.00;99794.81;2625228;47;20002;-72
2021/10/27 12:01:30;;;;;;;11.00;5.30;;;;;;;14.82;64.79;99798.31;2625352;39;20387;-72
2021/10/27 12:04:01;;;;;;;9.18;5.47;;;;;;;14.82;65.25;99789.50;2626075;39;20391;-71
2021/10/27 12:06:38;;;;;;;6.00;4.70;;;;;;;14.84;65.25;99782.94;2624419;47;20031;-72
2021/10/27 12:09:21;;;;;;;7.03;4.20;;;;;;;14.90;64.52;99784.03;2624697;47;20026;-72
2021/10/27 12:12:30;;;;;;;6.00;4.50;;;;;;;14.95;64.39;99788.75;2625037;54;20030;-73
2021/10/27 12:18:10;;;;;;;7.10;4.60;;;;;;;14.89;64.49;99777.03;2624419;47;20569;-71
2021/10/27 12:20:42;;;;;;;8.50;4.30;;;;;;;14.95;64.88;99770.13;2626197;54;20554;-72
2021/10/27 12:23:20;;;;;;;7.18;5.00;;;;;;;14.95;64.61;99762.13;2628816;39;20466;-72
2021/10/27 12:25:51;;;;;;;8.10;4.70;;;;;;;14.96;64.96;99763.75;2626831;54;20041;-73
2021/10/27 12:28:33;;;;;;;8.20;5.00;;;;;;;14.85;65.03;99757.97;2626074;54;20563;-73
2021/10/27 12:37:52;;;;;;;9.75;5.50;;;;;;;14.87;65.03;99736.50;2601933;39;20525;-71
2021/10/27 12:40:26;;;;;;;5.35;4.22;;;;;;;14.89;64.95;99736.28;2624061;54;20030;-71
2021/10/27 12:43:04;;;;;;;7.30;4.32;;;;;;;14.87;65.13;99731.16;2624364;54;20023;-70
2021/10/27 12:45:38;;;;;;;6.97;4.50;;;;;;;14.84;64.91;99726.22;2624747;54;20023;-71
2021/10/27 12:48:08;;;;;;;;;;;;;;;14.85;65.53;99726.03;2624425;54;20568;-70
2021/10/27 12:50:40;;;;;;;5.53;4.43;;;;;;;14.92;65.57;99728.72;2624470;54;19954;-70
2021/10/27 12:53:12;;;;;;;6.20;4.53;;;;;;;14.99;65.25;99726.91;2624201;54;20037;-69
2021/10/27 12:55:44;;;;;;;7.90;5.45;;;;;;;14.95;65.10;99731.00;2624243;54;20510;-69
2021/10/27 12:58:15;;;;;;;6.47;4.97;;;;;;;14.99;65.15;99732.25;2625414;39;20124;-69
2021/10/27 13:00:55;;;;;;;6.53;5.03;;;;;;;15.00;65.04;99711.75;2624439;54;20026;-72
2021/10/27 13:03:53;;;;;;;9.02;4.75;;;;;;;15.02;64.79;99715.88;2621663;54;20071;-71
2021/10/27 13:06:35;;;;;;;6.93;4.57;;;;;;;15.05;64.65;99712.78;2622384;39;20439;-71
2021/10/27 13:20:34;;;;;;;9.25;5.38;;;;;;;14.93;64.83;99700.25;2624201;39;20442;-71
2021/10/27 13:31:14;;;;;;;6.82;5.43;;;;;;;15.02;64.05;99688.41;2625042;39;20433;-72
2021/10/27 13:33:45;;;;;;;7.93;4.93;;;;;;;15.01;64.06;99684.09;2625448;54;20561;-72
2021/10/27 13:36:16;;;;;;;8.70;5.45;;;;;;;14.99;64.71;99678.19;2624667;47;20030;-72
2021/10/27 13:38:46;;;;;;;6.00;5.40;;;;;;;15.02;64.69;99683.06;2624697;54;20046;-72
2021/10/27 13:41:20;;;;;;;8.18;5.35;;;;;;;15.03;64.72;99680.22;2624729;54;20039;-72
2021/10/27 13:43:53;;;;;;;7.68;6.25;;;;;;;15.03;64.76;99676.75;2624591;39;20657;-73
2021/10/27 13:46:33;;;;;;;9.65;8.63;;;;;;;15.08;64.56;99676.97;2625477;39;20425;-72
2021/10/27 14:08:14;;;;;;;10.23;4.93;;;;;;;15.22;63.75;99659.16;2625577;54;20038;-72
2021/10/27 14:10:47;;;;;;;8.93;5.30;;;;;;;15.28;63.86;99653.06;2623640;54;20087;-72
2021/10/27 14:13:30;;;;;;;6.10;4.88;;;;;;;15.24;64.03;99651.81;2623587;54;20027;-72
2021/10/27 14:16:21;;;;;;;8.15;4.82;;;;;;;15.24;63.79;99644.63;2622990;54;20019;-73
2021/10/27 14:19:14;;;;;;;7.07;5.25;;;;;;;15.26;63.85;99650.56;2623514;54;20038;-72
2021/10/27 14:41:19;;;;;;;6.13;4.20;;;;;;;15.31;63.79;99621.50;2622590;54;20030;-73
2021/10/27 15:22:09;;;;;;;5.90;4.22;;;;;;;15.02;64.57;99592.56;2624906;54;20019;-73
2021/10/27 15:25:03;;;;;;;6.88;4.38;;;;;;;14.97;64.72;99590.50;2626329;54;20043;-73
2021/10/27 15:30:33;;;;;;;8.00;5.60;;;;;;;14.92;64.90;99590.28;2624608;47;20127;-73
2021/10/27 15:33:13;;;;;;;6.63;5.10;;;;;;;14.89;65.16;99588.03;2624544;54;20027;-73
2021/10/27 15:41:28;;;;;;;9.35;5.40;;;;;;;14.75;65.50;99595.16;2625227;47;20538;-75
2021/10/27 15:44:16;;;;;;;12.88;7.95;;;;;;;14.70;66.16;99599.44;2625546;54;20031;-74
2021/10/27 15:52:27;;;;;;;10.32;5.90;;;;;;;14.58;66.55;99594.69;2625097;47;20031;-73
2021/10/27 15:54:57;;;;;;;9.07;7.00;;;;;;;14.53;66.56;99598.97;2626285;54;20066;-73